Time;durP1;ratioP1;P1;durP2;ratioP2;P2;SDS_P1;SDS_P2;PMS_P1;PMS_P2;Temp;Humidity;BMP_temperature;BMP_pressure;BME280_temperature;BME280_humidity;BME280_pressure;Samples;Min_cycle;Max_cycle;Signal;HPM_P1;HPM_P2
2022/08/14 00:00:12;;;;;;;12.15;11.25;;;;;;;23.92;89.83;98657.22;5116649;27;20221;-60
2022/08/14 00:02:40;;;;;;;12.05;10.80;;;;;;;23.86;89.99;98653.34;5116628;27;20198;-61
2022/08/14 00:05:08;;;;;;;11.75;10.90;;;;;;;23.77;90.98;98657.72;5116611;27;20280;-60
2022/08/14 00:07:35;;;;;;;12.15;10.93;;;;;;;23.71;91.06;98653.00;5116704;27;20676;-60
2022/08/14 00:10:03;;;;;;;13.27;11.65;;;;;;;23.65;91.47;98643.00;5116590;27;20191;-61
2022/08/14 00:12:31;;;;;;;12.50;11.40;;;;;;;23.69;91.42;98648.84;5116741;27;20229;-61
2022/08/14 00:14:59;;;;;;;11.63;10.82;;;;;;;23.68;91.32;98645.38;5114486;27;20220;-61
2022/08/14 00:17:26;;;;;;;12.82;11.60;;;;;;;23.64;91.33;98637.84;5116616;28;20220;-60
2022/08/14 00:19:53;;;;;;;12.30;11.13;;;;;;;23.64;91.33;98632.56;5116660;27;20214;-60
2022/08/14 00:22:21;;;;;;;12.82;11.65;;;;;;;23.64;91.46;98643.16;5116596;27;20202;-59
2022/08/14 00:24:48;;;;;;;11.93;10.98;;;;;;;23.71;91.15;98637.09;5116376;27;20199;-61
2022/08/14 00:27:15;;;;;;;11.88;10.82;;;;;;;23.76;90.18;98640.16;5116595;27;20333;-61
2022/08/14 00:29:42;;;;;;;11.57;10.77;;;;;;;23.69;90.59;98636.44;5116408;27;20204;-60
2022/08/14 00:32:12;;;;;;;11.85;10.77;;;;;;;23.67;90.72;98632.25;5116326;27;20206;-60
2022/08/14 00:34:39;;;;;;;12.30;10.35;;;;;;;23.72;90.32;98633.47;5116404;27;20292;-63
2022/08/14 00:37:06;;;;;;;11.90;10.90;;;;;;;23.74;90.06;98643.94;5116264;27;20198;-62
2022/08/14 00:39:33;;;;;;;12.55;10.98;;;;;;;23.66;90.16;98631.44;5116812;28;20259;-62
2022/08/14 00:42:00;;;;;;;11.07;10.30;;;;;;;23.64;90.13;98617.50;5116243;28;20793;-63
2022/08/14 00:44:28;;;;;;;11.73;10.13;;;;;;;23.67;89.94;98632.25;5116479;27;20211;-62
2022/08/14 00:46:55;;;;;;;11.40;10.57;;;;;;;23.70;89.90;98627.47;5116584;27;20198;-63
2022/08/14 00:49:24;;;;;;;10.60;9.80;;;;;;;23.70;90.04;98627.47;5116395;27;20194;-63
2022/08/14 00:51:51;;;;;;;11.35;10.55;;;;;;;23.64;90.23;98617.50;5116185;27;20721;-62
2022/08/14 00:54:18;;;;;;;11.40;10.20;;;;;;;23.64;90.42;98620.13;5116236;27;20205;-62
2022/08/14 00:56:45;;;;;;;11.40;10.43;;;;;;;23.67;90.17;98617.19;5116472;27;20604;-62
2022/08/14 00:59:12;;;;;;;11.98;10.85;;;;;;;23.64;90.43;98620.13;5112592;27;20249;-62
2022/08/14 01:01:40;;;;;;;11.35;10.15;;;;;;;23.60;90.26;98612.63;5112963;28;20324;-62
2022/08/14 01:04:07;;;;;;;10.30;9.50;;;;;;;23.58;89.80;98620.75;5112788;28;20198;-62
2022/08/14 01:06:36;;;;;;;10.80;9.93;;;;;;;23.57;90.11;98619.06;5112812;28;20209;-62
2022/08/14 01:09:03;;;;;;;11.18;10.18;;;;;;;23.53;90.35;98618.53;5112695;28;20198;-62
2022/08/14 01:11:32;;;;;;;10.77;9.82;;;;;;;23.54;90.41;98622.00;5112824;28;20727;-62
2022/08/14 01:14:00;;;;;;;10.43;9.75;;;;;;;23.56;90.21;98620.06;5112854;28;20801;-62
2022/08/14 01:16:29;;;;;;;10.45;9.63;;;;;;;23.58;89.79;98618.09;5113328;28;20201;-62
2022/08/14 01:21:44;;;;;;;11.13;10.00;;;;;;;23.46;90.51;98614.78;5112506;28;20217;-63
2022/08/14 01:24:14;;;;;;;11.02;10.13;;;;;;;23.47;90.85;98603.22;5112558;28;20201;-62
2022/08/14 01:26:41;;;;;;;11.88;10.98;;;;;;;23.41;91.31;98605.59;5112375;28;20206;-62
2022/08/14 01:29:09;;;;;;;11.48;10.40;;;;;;;23.41;91.27;98617.03;5112380;28;20575;-62
2022/08/14 01:31:40;;;;;;;11.55;10.73;;;;;;;23.42;91.22;98612.56;5112432;28;20202;-60
2022/08/14 01:34:08;;;;;;;11.95;10.93;;;;;;;23.44;91.01;98605.31;5112412;28;20195;-60
2022/08/14 01:36:37;;;;;;;11.95;10.52;;;;;;;23.45;90.71;98605.16;5112489;28;20705;-62
2022/08/14 01:39:09;;;;;;;12.32;11.30;;;;;;;23.46;90.79;98611.28;5112216;28;20194;-61
2022/08/14 01:41:37;;;;;;;13.55;12.40;;;;;;;23.49;90.76;98611.81;5112175;28;20714;-59
2022/08/14 01:44:07;;;;;;;13.07;11.98;;;;;;;23.52;90.55;98621.31;5112310;28;20256;-62
2022/08/14 01:46:35;;;;;;;12.57;11.57;;;;;;;23.50;90.55;98615.34;5112197;28;20195;-62
2022/08/14 01:49:07;;;;;;;12.90;11.80;;;;;;;23.41;91.05;98614.38;5112075;28;20205;-60
2022/08/14 01:51:34;;;;;;;16.10;11.68;;;;;;;23.45;90.96;98618.41;5111948;28;20199;-62
2022/08/14 01:54:05;;;;;;;12.48;11.38;;;;;;;23.40;91.39;98614.53;5111922;28;20217;-62
2022/08/14 01:56:36;;;;;;;12.18;11.25;;;;;;;23.40;91.46;98622.47;5112357;28;20194;-62
2022/08/14 01:59:04;;;;;;;12.23;11.25;;;;;;;23.29;91.82;98610.25;5111901;28;20191;-61
2022/08/14 02:01:32;;;;;;;12.63;11.48;;;;;;;23.29;92.54;98609.41;5112003;27;20222;-61
2022/08/14 02:03:59;;;;;;;12.68;11.45;;;;;;;23.33;92.77;98611.63;5111828;28;20191;-61
2022/08/14 02:06:26;;;;;;;12.93;11.93;;;;;;;23.26;93.21;98610.53;5111699;28;20695;-63
2022/08/14 02:08:54;;;;;;;14.15;12.88;;;;;;;23.26;93.79;98607.06;5111290;28;20293;-62
2022/08/14 02:11:23;;;;;;;13.23;12.13;;;;;;;23.25;93.58;98603.56;5111608;28;20628;-63
2022/08/14 02:13:58;;;;;;;12.57;11.57;;;;;;;23.21;93.60;98591.63;5111505;28;20298;-62
2022/08/14 02:16:28;;;;;;;12.68;11.77;;;;;;;23.21;93.44;98593.44;5111603;28;20627;-63
2022/08/14 02:18:57;;;;;;;13.88;12.60;;;;;;;23.30;93.59;98595.19;5111476;28;20564;-60
2022/08/14 02:21:24;;;;;;;14.82;12.85;;;;;;;23.31;93.77;98589.75;5111101;28;20222;-61
2022/08/14 02:23:53;;;;;;;13.60;12.50;;;;;;;23.23;94.75;98584.38;5110702;28;20194;-61
2022/08/14 02:26:22;;;;;;;14.23;13.13;;;;;;;23.22;95.09;98590.66;5090990;28;20214;-64
2022/08/14 02:28:50;;;;;;;14.35;13.05;;;;;;;23.24;95.00;98593.16;5099628;28;20202;-65
2022/08/14 02:31:19;;;;;;;14.25;12.60;;;;;;;23.22;93.97;98587.16;5090857;28;20199;-64
2022/08/14 02:33:47;;;;;;;12.38;11.45;;;;;;;23.17;93.35;98585.78;5090788;28;20685;-60
2022/08/14 02:36:15;;;;;;;15.40;12.48;;;;;;;23.12;93.78;98588.03;5090679;28;20206;-64
2022/08/14 02:38:42;;;;;;;13.02;11.82;;;;;;;23.16;93.62;98589.41;5090782;28;20199;-61
2022/08/14 02:41:11;;;;;;;13.02;11.93;;;;;;;23.17;93.33;98579.66;5091001;28;20227;-60
2022/08/14 02:43:39;;;;;;;17.58;12.73;;;;;;;23.16;93.76;98584.09;5090606;28;20201;-62
2022/08/14 02:46:09;;;;;;;13.32;12.02;;;;;;;23.09;94.02;98584.84;5090585;28;20199;-61
2022/08/14 02:48:40;;;;;;;12.85;11.55;;;;;;;23.05;93.98;98584.28;5090479;28;20214;-61
2022/08/14 02:51:10;;;;;;;13.55;12.40;;;;;;;22.92;94.40;98565.25;5090676;28;20681;-62
2022/08/14 02:53:39;;;;;;;13.70;12.27;;;;;;;23.01;94.41;98582.09;5092961;28;20210;-58
2022/08/14 02:56:09;;;;;;;14.15;12.75;;;;;;;22.94;94.98;98576.53;5110721;28;20194;-59
2022/08/14 02:58:39;;;;;;;13.98;12.70;;;;;;;22.93;95.06;98574.88;5111182;28;20305;-58
2022/08/14 03:01:08;;;;;;;13.85;12.57;;;;;;;22.83;95.97;98575.88;5110396;28;20320;-60
2022/08/14 03:03:36;;;;;;;17.35;13.30;;;;;;;22.78;96.79;98576.31;5110730;28;20200;-60
2022/08/14 03:06:05;;;;;;;14.55;13.20;;;;;;;22.86;96.68;98573.78;5110550;28;20198;-57
2022/08/14 03:08:33;;;;;;;13.45;12.18;;;;;;;22.92;96.00;98573.19;5110577;28;20194;-57
2022/08/14 03:11:05;;;;;;;13.25;12.05;;;;;;;22.93;96.07;98580.16;5110780;28;20327;-56
2022/08/14 03:13:34;;;;;;;14.98;13.23;;;;;;;22.87;96.16;98564.88;5110501;28;20672;-57
2022/08/14 03:16:02;;;;;;;13.80;12.60;;;;;;;22.89;96.76;98572.66;5110239;28;20213;-60
2022/08/14 03:18:29;;;;;;;14.32;12.93;;;;;;;22.82;96.85;98561.81;5110495;28;20202;-57
2022/08/14 03:20:56;;;;;;;14.32;13.02;;;;;;;22.72;96.79;98545.09;5109852;28;20217;-57
2022/08/14 03:23:25;;;;;;;14.07;12.75;;;;;;;22.80;97.03;98563.75;5110153;28;20186;-60
2022/08/14 03:25:52;;;;;;;13.90;12.57;;;;;;;22.89;96.46;98562.09;5110248;28;20675;-58
2022/08/14 03:28:18;;;;;;;13.32;12.20;;;;;;;22.93;96.29;98563.44;5110194;28;20195;-58
2022/08/14 03:30:45;;;;;;;13.68;12.35;;;;;;;22.86;96.61;98557.91;5110248;28;20213;-56
2022/08/14 03:33:13;;;;;;;13.82;12.73;;;;;;;22.75;97.70;98561.56;5110178;28;20285;-59
2022/08/14 03:35:40;;;;;;;13.48;12.43;;;;;;;22.83;97.19;98562.66;5110611;28;20737;-59
2022/08/14 03:38:09;;;;;;;13.95;12.85;;;;;;;22.77;97.46;98572.00;5110245;28;20577;-57
2022/08/14 03:40:38;;;;;;;14.52;12.45;;;;;;;22.75;98.08;98566.00;5109996;28;20650;-56
2022/08/14 03:43:06;;;;;;;14.00;12.60;;;;;;;22.80;98.34;98569.88;5110183;28;20252;-57
2022/08/14 03:45:34;;;;;;;16.42;13.65;;;;;;;22.78;98.70;98571.88;5110164;28;20280;-57
2022/08/14 03:48:03;;;;;;;15.35;13.85;;;;;;;22.66;99.53;98566.88;5109918;28;20199;-57
2022/08/14 03:50:31;;;;;;;15.60;14.13;;;;;;;22.72;99.77;98575.03;5109991;28;20587;-56
2022/08/14 03:53:00;;;;;;;14.40;12.95;;;;;;;22.68;100.00;98581.63;5109942;28;20213;-57
2022/08/14 03:55:27;;;;;;;15.50;14.00;;;;;;;22.73;100.00;98583.81;5110167;28;20248;-56
2022/08/14 03:57:55;;;;;;;14.35;12.95;;;;;;;22.73;100.00;98583.81;5110063;28;20199;-57
2022/08/14 04:00:23;;;;;;;15.13;13.63;;;;;;;22.72;100.00;98588.28;5109810;28;20194;-57
2022/08/14 04:02:50;;;;;;;17.25;13.95;;;;;;;22.70;100.00;98584.94;5109830;28;20283;-57
2022/08/14 04:05:17;;;;;;;14.57;13.25;;;;;;;22.77;100.00;98591.38;5109767;28;20209;-58
2022/08/14 04:07:45;;;;;;;15.07;13.68;;;;;;;22.90;100.00;98587.56;5110212;28;20199;-57
2022/08/14 04:10:13;;;;;;;18.70;14.73;;;;;;;22.97;100.00;98591.28;5109715;28;20209;-57
2022/08/14 04:12:40;;;;;;;16.15;14.65;;;;;;;23.03;100.00;98599.47;5110142;28;20689;-57
2022/08/14 04:15:10;;;;;;;18.48;15.35;;;;;;;23.03;100.00;98599.47;5106362;28;20195;-58
2022/08/14 04:17:37;;;;;;;16.38;14.68;;;;;;;23.13;100.00;98596.81;5089368;28;20202;-56
2022/08/14 04:20:06;;;;;;;15.80;14.30;;;;;;;23.20;100.00;98597.06;5089049;28;20322;-58
2022/08/14 04:22:33;;;;;;;16.75;15.02;;;;;;;23.15;100.00;98608.91;5088175;28;20238;-57
2022/08/14 04:25:01;;;;;;;16.35;14.90;;;;;;;23.17;100.00;98604.31;5089403;28;20301;-57
2022/08/14 04:27:28;;;;;;;19.15;15.27;;;;;;;23.27;100.00;98606.06;5089420;28;20210;-57
2022/08/14 04:29:56;;;;;;;17.02;14.77;;;;;;;23.24;100.00;98603.75;5089156;28;20191;-58
2022/08/14 04:32:26;;;;;;;20.02;15.25;;;;;;;23.04;100.00;98606.44;5089164;28;20251;-57
2022/08/14 04:34:53;;;;;;;17.27;15.65;;;;;;;23.04;100.00;98605.59;5091986;28;20217;-58
2022/08/14 04:45:39;;;;;;;16.90;15.35;;;;;;;23.17;100.00;98608.75;5092939;28;20687;-59
2022/08/14 04:48:15;;;;;;;17.08;15.32;;;;;;;23.22;100.00;98595.09;5093058;28;20203;-59
2022/08/14 04:50:44;;;;;;;17.02;15.15;;;;;;;23.14;100.00;98588.72;5093038;28;20221;-58
2022/08/14 04:53:13;;;;;;;16.23;14.63;;;;;;;23.15;100.00;98606.25;5093071;28;20195;-59
2022/08/14 04:55:41;;;;;;;15.52;13.90;;;;;;;23.11;100.00;98599.59;5092711;28;20290;-59
2022/08/14 04:58:09;;;;;;;16.30;14.70;;;;;;;23.24;100.00;98601.09;5092980;28;20191;-58
2022/08/14 05:00:38;;;;;;;17.67;15.75;;;;;;;23.30;100.00;98592.56;5092607;28;20203;-56
2022/08/14 05:03:06;;;;;;;17.52;14.90;;;;;;;23.58;100.00;98601.38;5092596;28;20223;-57
2022/08/14 05:05:35;;;;;;;15.27;13.75;;;;;;;24.67;94.02;98600.22;5092446;28;20205;-59
2022/08/14 05:08:10;;;;;;;15.35;13.73;;;;;;;26.02;85.36;98594.88;5092349;28;20195;-60
2022/08/14 05:10:40;;;;;;;15.10;13.80;;;;;;;27.04;78.98;98609.50;5092848;28;20190;-60
2022/08/14 05:13:07;;;;;;;14.25;13.02;;;;;;;27.73;74.03;98600.75;5092648;28;20211;-59
2022/08/14 05:15:35;;;;;;;14.05;12.75;;;;;;;27.67;73.35;98604.09;5092432;28;20249;-59
2022/08/14 05:18:11;;;;;;;14.88;13.55;;;;;;;27.25;74.64;98592.94;5092346;28;20199;-59
2022/08/14 05:20:41;;;;;;;14.45;12.90;;;;;;;28.39;70.77;98598.50;5092212;28;20637;-59
2022/08/14 05:23:08;;;;;;;13.00;11.93;;;;;;;30.06;62.94;98590.75;5092078;28;20215;-60
2022/08/14 05:25:35;;;;;;;14.55;13.18;;;;;;;31.21;57.83;98604.69;5091971;28;20191;-59
2022/08/14 05:28:10;;;;;;;13.10;12.00;;;;;;;31.98;55.37;98604.41;5092190;28;20206;-60
2022/08/14 05:30:38;;;;;;;13.70;12.27;;;;;;;32.19;53.88;98598.06;5092114;28;20607;-59
2022/08/14 05:33:05;;;;;;;13.88;11.73;;;;;;;32.97;51.86;98602.63;5091878;28;20199;-59
2022/08/14 05:35:32;;;;;;;14.15;12.95;;;;;;;33.75;48.52;98606.13;5093917;28;20195;-62
2022/08/14 05:38:01;;;;;;;11.55;10.65;;;;;;;34.78;45.97;98616.66;5099800;28;20195;-63
2022/08/14 05:40:28;;;;;;;11.52;10.43;;;;;;;35.83;43.07;98620.13;5101034;28;20199;-62
2022/08/14 05:42:55;;;;;;;11.63;10.65;;;;;;;35.89;42.00;98625.44;5101441;28;20237;-62
2022/08/14 05:45:23;;;;;;;12.80;12.00;;;;;;;35.44;43.27;98622.22;5099340;28;20203;-62
2022/08/14 05:47:50;;;;;;;11.45;10.75;;;;;;;34.84;45.19;98621.19;5097816;28;21051;-62
2022/08/14 05:50:17;;;;;;;12.43;10.98;;;;;;;33.79;46.65;98617.31;5099539;28;20214;-62
2022/08/14 05:52:44;;;;;;;12.93;11.70;;;;;;;32.21;50.51;98615.63;5100653;28;20263;-61
2022/08/14 05:55:13;;;;;;;12.23;11.20;;;;;;;31.13;54.24;98607.53;5101974;28;20202;-62
2022/08/14 05:57:50;;;;;;;14.07;12.68;;;;;;;29.95;58.09;98605.44;5100529;28;20201;-62
2022/08/14 06:00:18;;;;;;;16.00;12.52;;;;;;;29.29;61.78;98604.63;5098836;28;20200;-61
2022/08/14 06:02:45;;;;;;;13.93;12.63;;;;;;;28.88;64.39;98599.72;5097229;28;20212;-61
2022/08/14 06:05:12;;;;;;;14.40;12.90;;;;;;;28.40;66.56;98600.16;5098988;28;20198;-62
2022/08/14 06:07:39;;;;;;;14.48;13.05;;;;;;;27.88;68.81;98600.00;5098859;28;20597;-62
2022/08/14 06:10:09;;;;;;;14.82;12.90;;;;;;;27.70;70.45;98597.59;5100967;28;20272;-61
2022/08/14 06:12:37;;;;;;;14.13;12.82;;;;;;;27.43;72.10;98602.34;5107632;28;20199;-61
2022/08/14 06:15:06;;;;;;;14.50;13.10;;;;;;;27.08;74.62;98601.00;5099415;28;20628;-61
2022/08/14 06:17:42;;;;;;;15.32;13.90;;;;;;;26.87;75.04;98607.84;5098583;28;20201;-62
2022/08/14 06:20:10;;;;;;;13.25;12.25;;;;;;;26.72;75.58;98608.53;5094947;28;20291;-62
2022/08/14 06:22:40;;;;;;;13.80;12.57;;;;;;;26.32;77.04;98605.88;5090546;28;20258;-63
2022/08/14 06:25:09;;;;;;;17.13;15.52;;;;;;;26.23;77.98;98602.38;5090765;28;20199;-62
2022/08/14 06:27:38;;;;;;;15.70;14.18;;;;;;;25.96;77.95;98595.50;5090796;28;20286;-62
2022/08/14 06:30:08;;;;;;;13.65;12.45;;;;;;;25.86;78.55;98605.47;5097653;28;20199;-56
2022/08/14 06:32:35;;;;;;;13.85;12.45;;;;;;;25.66;80.14;98610.25;5089951;28;20584;-60
2022/08/14 06:35:05;;;;;;;14.88;13.50;;;;;;;25.41;82.46;98612.94;5090029;28;20235;-62
2022/08/14 06:37:39;;;;;;;13.90;12.65;;;;;;;25.20;84.11;98614.19;5089822;28;20270;-60
2022/08/14 06:40:08;;;;;;;21.88;19.67;;;;;;;25.09;85.52;98603.84;5089897;28;20207;-62
2022/08/14 06:42:35;;;;;;;19.30;16.42;;;;;;;25.08;86.60;98607.47;5088639;28;20638;-61
2022/08/14 06:45:05;;;;;;;15.15;13.63;;;;;;;24.91;87.91;98605.69;5089346;28;20709;-62
2022/08/14 06:47:34;;;;;;;14.40;12.98;;;;;;;24.92;88.01;98607.38;5089241;28;20227;-60
2022/08/14 06:50:01;;;;;;;16.52;14.90;;;;;;;24.86;88.23;98611.47;5088515;28;20219;-62
2022/08/14 06:52:28;;;;;;;14.85;13.40;;;;;;;24.94;87.48;98606.22;5089038;28;20302;-61
2022/08/14 06:54:55;;;;;;;16.60;13.48;;;;;;;25.14;85.66;98606.03;5089020;28;20247;-61
2022/08/14 06:57:22;;;;;;;14.75;13.45;;;;;;;25.28;84.53;98610.75;5088295;28;20219;-63
2022/08/14 06:59:49;;;;;;;15.40;14.07;;;;;;;25.36;84.37;98605.47;5088907;28;20268;-59
2022/08/14 07:07:46;;;;;;;14.10;12.57;;;;;;;25.58;82.00;98599.56;5088986;28;20669;-63
2022/08/14 07:10:13;;;;;;;14.32;12.98;;;;;;;25.72;81.44;98616.75;5102829;28;20296;-64
2022/08/14 07:12:40;;;;;;;13.38;12.13;;;;;;;25.73;81.35;98615.75;5096815;28;20214;-64
2022/08/14 07:15:09;;;;;;;14.55;13.35;;;;;;;25.87;80.23;98614.28;5109005;28;20309;-63
2022/08/14 07:17:44;;;;;;;14.57;13.10;;;;;;;26.06;79.91;98614.00;5109231;28;20214;-62
2022/08/14 07:20:11;;;;;;;15.20;13.30;;;;;;;26.07;78.88;98617.50;5109043;28;20253;-64
2022/08/14 07:22:38;;;;;;;14.23;12.82;;;;;;;25.92;79.46;98599.50;5108467;28;20236;-63
2022/08/14 07:25:06;;;;;;;14.73;12.63;;;;;;;25.98;79.20;98622.78;5108408;28;20195;-64
2022/08/14 07:27:33;;;;;;;14.30;13.02;;;;;;;25.82;80.53;98617.44;5109394;28;20209;-58
2022/08/14 07:30:03;;;;;;;14.27;12.80;;;;;;;25.54;80.91;98613.31;5109554;28;20750;-58
2022/08/14 07:32:30;;;;;;;13.55;12.45;;;;;;;25.44;82.10;98620.59;5109314;28;20688;-59
2022/08/14 07:34:58;;;;;;;15.20;13.82;;;;;;;25.27;83.85;98615.22;5110011;28;20716;-57
2022/08/14 07:37:25;;;;;;;17.45;13.98;;;;;;;25.24;83.88;98620.84;5109935;28;20198;-56
2022/08/14 07:39:52;;;;;;;14.45;13.15;;;;;;;24.99;84.59;98620.88;5094218;28;20195;-62
2022/08/14 07:42:19;;;;;;;15.20;13.48;;;;;;;24.84;84.86;98620.56;5098248;28;20317;-62
2022/08/14 07:44:46;;;;;;;12.85;11.95;;;;;;;24.79;85.24;98622.88;5099780;28;20191;-62
2022/08/14 07:47:14;;;;;;;14.63;13.30;;;;;;;24.80;86.63;98624.53;5098032;28;20195;-63
2022/08/14 07:49:41;;;;;;;14.55;13.23;;;;;;;24.61;92.90;98622.91;5098916;28;20190;-61
2022/08/14 07:52:10;;;;;;;14.25;13.05;;;;;;;24.66;93.73;98625.09;5100090;28;20598;-63
2022/08/14 07:54:37;;;;;;;14.85;13.27;;;;;;;24.59;95.04;98632.84;5098425;28;20192;-62
2022/08/14 07:57:05;;;;;;;14.40;13.18;;;;;;;24.46;97.58;98619.16;5098614;28;20198;-62
2022/08/14 07:59:32;;;;;;;16.00;14.05;;;;;;;24.29;99.55;98631.44;5098475;28;20191;-61
2022/08/14 08:02:00;;;;;;;14.52;13.20;;;;;;;24.08;100.00;98623.75;5100681;28;20190;-60
2022/08/14 08:04:29;;;;;;;15.32;13.45;;;;;;;24.01;100.00;98619.22;5109732;28;20195;-58
2022/08/14 08:06:56;;;;;;;15.63;14.05;;;;;;;23.88;100.00;98617.75;5109761;28;20199;-61
2022/08/14 08:09:27;;;;;;;14.43;12.68;;;;;;;23.77;100.00;98623.28;5105110;28;20215;-63
2022/08/14 08:11:55;;;;;;;14.57;13.38;;;;;;;23.75;100.00;98614.63;5093206;28;20755;-63
2022/08/14 08:14:22;;;;;;;13.85;12.55;;;;;;;23.74;100.00;98620.91;5093156;28;20219;-62
2022/08/14 08:16:49;;;;;;;15.00;13.45;;;;;;;23.71;100.00;98613.25;5093171;28;20233;-60
2022/08/14 08:19:17;;;;;;;13.50;12.20;;;;;;;23.76;100.00;98624.25;5093131;28;20302;-61
2022/08/14 08:21:45;;;;;;;13.50;12.40;;;;;;;23.69;100.00;98619.72;5092759;28;20317;-62
2022/08/14 08:24:12;;;;;;;14.25;13.15;;;;;;;23.57;100.00;98627.03;5092281;28;20310;-58
2022/08/14 08:26:41;;;;;;;14.32;13.02;;;;;;;23.60;100.00;98626.72;5092831;28;20239;-61
2022/08/14 08:29:08;;;;;;;14.45;13.15;;;;;;;23.61;100.00;98627.53;5104784;28;20230;-61
2022/08/14 08:31:48;;;;;;;13.68;12.57;;;;;;;23.69;100.00;98619.72;5112950;28;20723;-60
2022/08/14 08:34:15;;;;;;;14.82;13.52;;;;;;;23.70;100.00;98622.19;5112897;28;20218;-61
2022/08/14 08:36:43;;;;;;;16.73;15.10;;;;;;;23.60;100.00;98620.56;5112800;28;20313;-59
2022/08/14 08:39:10;;;;;;;19.38;16.85;;;;;;;23.48;100.00;98609.31;5112379;28;20229;-58
2022/08/14 08:41:44;;;;;;;15.80;14.25;;;;;;;23.74;100.00;98623.56;5112472;28;20334;-58
2022/08/14 08:44:11;;;;;;;30.00;26.75;;;;;;;23.96;100.00;98627.59;5107648;28;20594;-61
2022/08/14 08:46:38;;;;;;;32.75;28.15;;;;;;;24.09;100.00;98630.72;5091096;28;20326;-61
2022/08/14 08:49:06;;;;;;;19.17;15.38;;;;;;;24.01;100.00;98625.34;5090460;28;20252;-61
2022/08/14 08:51:37;;;;;;;17.05;15.30;;;;;;;24.01;100.00;98635.94;5090489;28;20223;-61
2022/08/14 08:54:06;;;;;;;15.50;13.77;;;;;;;23.87;100.00;98632.00;5090045;28;20250;-61
2022/08/14 08:56:34;;;;;;;16.52;15.00;;;;;;;23.85;100.00;98633.13;5090341;28;20610;-60
2022/08/14 08:59:03;;;;;;;16.67;14.98;;;;;;;23.74;100.00;98628.03;5101501;28;20291;-62
2022/08/14 09:01:31;;;;;;;15.77;14.13;;;;;;;23.82;100.00;98634.25;5111101;28;20668;-61
2022/08/14 09:04:04;;;;;;;16.85;15.05;;;;;;;23.68;100.00;98624.16;5112253;27;20269;-62
2022/08/14 09:06:33;;;;;;;17.00;14.77;;;;;;;23.59;100.00;98613.63;5112518;28;20227;-61
2022/08/14 09:09:00;;;;;;;13.80;12.68;;;;;;;23.60;100.00;98626.72;5111691;28;20218;-61
2022/08/14 09:11:27;;;;;;;42.67;34.20;;;;;;;23.49;100.00;98618.94;5112311;28;20711;-61
2022/08/14 09:13:54;;;;;;;17.38;15.55;;;;;;;23.59;100.00;98618.94;5111945;28;20218;-61
2022/08/14 09:16:24;;;;;;;14.68;12.77;;;;;;;23.72;100.00;98628.16;5112398;28;20214;-61
2022/08/14 09:18:51;;;;;;;13.30;12.18;;;;;;;23.80;100.00;98620.34;5111597;28;20305;-61
2022/08/14 09:21:19;;;;;;;12.25;11.15;;;;;;;23.99;100.00;98619.34;5112255;28;20214;-62
2022/08/14 09:23:46;;;;;;;11.57;10.50;;;;;;;24.27;100.00;98620.13;5111290;28;20230;-61
2022/08/14 09:26:13;;;;;;;11.90;10.90;;;;;;;24.46;100.00;98622.63;5111951;28;20218;-61
2022/08/14 09:28:40;;;;;;;11.55;10.68;;;;;;;24.49;100.00;98627.63;5103944;28;20233;-60
2022/08/14 09:31:10;;;;;;;12.05;10.90;;;;;;;24.39;100.00;98624.22;5107062;28;20293;-62
2022/08/14 09:34:01;;;;;;;12.73;11.63;;;;;;;24.21;100.00;98615.41;5099272;28;20201;-60
2022/08/14 09:36:40;;;;;;;11.85;10.88;;;;;;;23.99;100.00;98611.41;5091820;28;20287;-61
2022/08/14 09:39:17;;;;;;;11.60;10.55;;;;;;;24.02;100.00;98623.53;5091688;28;20734;-62
2022/08/14 09:41:58;;;;;;;12.93;11.85;;;;;;;23.97;100.00;98607.22;5091915;28;20233;-62
2022/08/14 09:44:41;;;;;;;13.70;12.43;;;;;;;23.85;100.00;98614.56;5091597;28;20314;-62
2022/08/14 09:47:09;;;;;;;14.23;12.85;;;;;;;23.59;100.00;98619.75;5091817;28;20666;-62
2022/08/14 09:49:41;;;;;;;18.42;16.67;;;;;;;23.29;100.00;98604.13;5091478;28;20598;-60
2022/08/14 09:52:10;;;;;;;16.60;14.82;;;;;;;23.04;100.00;98597.66;5091749;28;20223;-61
2022/08/14 09:54:39;;;;;;;17.40;14.82;;;;;;;23.05;100.00;98600.19;5091696;28;20278;-60
2022/08/14 09:57:09;;;;;;;19.95;15.70;;;;;;;22.92;100.00;98589.06;5111573;28;20201;-61
2022/08/14 09:59:45;;;;;;;20.40;17.95;;;;;;;22.94;100.00;98605.66;5107648;28;20205;-61
2022/08/14 10:02:23;;;;;;;20.20;17.33;;;;;;;22.89;100.00;98615.84;5105715;28;20191;-60
2022/08/14 10:05:08;;;;;;;18.77;16.88;;;;;;;22.69;100.00;98617.66;5099985;28;20215;-61
2022/08/14 10:07:37;;;;;;;17.48;15.90;;;;;;;22.57;100.00;98617.97;5099367;28;20220;-60
2022/08/14 10:10:05;;;;;;;22.00;19.63;;;;;;;22.49;100.00;98615.19;5101832;28;20582;-60
2022/08/14 10:12:47;;;;;;;33.83;23.38;;;;;;;22.53;100.00;98598.06;5111296;27;20229;-60
2022/08/14 10:15:19;;;;;;;23.30;19.52;;;;;;;22.51;100.00;98597.38;5111380;28;20205;-62
2022/08/14 10:17:47;;;;;;;20.52;18.33;;;;;;;22.49;100.00;98580.81;5111570;28;20194;-61
2022/08/14 10:20:20;;;;;;;22.90;18.33;;;;;;;22.45;100.00;98569.69;5111319;28;20203;-60
2022/08/14 10:22:48;;;;;;;22.33;18.42;;;;;;;22.51;100.00;98576.22;5110875;28;20249;-63
2022/08/14 10:25:18;;;;;;;21.85;19.23;;;;;;;22.46;100.00;98569.53;5111445;28;20306;-60
2022/08/14 10:27:48;;;;;;;22.40;18.27;;;;;;;22.46;100.00;98566.06;5111045;28;20203;-60
2022/08/14 10:30:19;;;;;;;29.48;20.73;;;;;;;22.38;100.00;98558.84;5111458;28;20746;-61
2022/08/14 10:32:47;;;;;;;23.17;20.77;;;;;;;22.45;100.00;98562.59;5111191;28;20219;-60
2022/08/14 10:35:16;;;;;;;23.67;19.92;;;;;;;22.42;100.00;98554.09;5110883;28;20656;-59
2022/08/14 10:37:46;;;;;;;21.38;19.15;;;;;;;22.49;100.00;98559.66;5111348;28;20745;-60
2022/08/14 10:40:16;;;;;;;22.98;19.45;;;;;;;22.53;100.00;98561.03;5110960;28;20230;-60
2022/08/14 10:42:45;;;;;;;23.42;19.23;;;;;;;22.60;100.00;98555.03;5110921;28;20655;-60
2022/08/14 10:45:20;;;;;;;22.83;20.27;;;;;;;22.66;100.00;98557.13;5110149;28;20187;-60
2022/08/14 10:47:48;;;;;;;22.92;18.83;;;;;;;22.83;100.00;98562.66;5110735;28;20592;-60
2022/08/14 10:50:17;;;;;;;20.67;17.73;;;;;;;22.81;100.00;98558.34;5104638;28;20188;-62
2022/08/14 10:52:45;;;;;;;18.10;16.30;;;;;;;22.79;100.00;98555.03;5099107;28;20191;-62
2022/08/14 10:55:14;;;;;;;19.83;17.75;;;;;;;22.75;100.00;98542.19;5100915;28;20187;-61
2022/08/14 10:57:50;;;;;;;20.92;18.73;;;;;;;22.81;100.00;98549.56;5099659;28;20197;-61
2022/08/14 11:00:20;;;;;;;20.63;18.00;;;;;;;22.81;100.00;98536.34;5099011;28;20572;-62
2022/08/14 11:02:58;;;;;;;22.92;19.42;;;;;;;22.82;100.00;98538.00;5099233;27;20191;-60
2022/08/14 11:05:26;;;;;;;19.90;17.90;;;;;;;22.80;100.00;98537.31;5106202;28;20205;-60
2022/08/14 11:07:59;;;;;;;20.25;18.15;;;;;;;22.80;100.00;98537.31;5110731;28;20217;-60
2022/08/14 11:10:40;;;;;;;20.13;17.90;;;;;;;22.67;100.00;98528.84;5110502;28;20217;-60
2022/08/14 11:13:07;;;;;;;19.58;17.65;;;;;;;22.83;100.00;98546.78;5110199;28;20198;-60
2022/08/14 11:15:35;;;;;;;20.83;17.60;;;;;;;22.95;100.00;98535.03;5110119;28;20247;-59
2022/08/14 11:18:03;;;;;;;21.77;18.05;;;;;;;23.01;100.00;98535.31;5110467;28;20213;-60
2022/08/14 11:20:32;;;;;;;17.92;16.25;;;;;;;23.23;100.00;98535.88;5110205;28;20671;-60
2022/08/14 11:23:00;;;;;;;18.33;16.40;;;;;;;23.38;100.00;98550.28;5110305;28;20313;-61
2022/08/14 11:25:30;;;;;;;18.73;16.83;;;;;;;23.43;100.00;98556.81;5109968;28;20312;-60
2022/08/14 11:27:59;;;;;;;18.02;16.10;;;;;;;23.34;100.00;98568.28;5110496;28;20613;-60
2022/08/14 11:30:28;;;;;;;19.75;16.85;;;;;;;23.26;100.00;98559.41;5110382;28;20209;-60
2022/08/14 11:32:57;;;;;;;19.08;16.27;;;;;;;23.29;100.00;98559.09;5110208;28;20198;-60
2022/08/14 11:35:26;;;;;;;17.17;15.40;;;;;;;23.32;100.00;98561.47;5110005;28;20606;-59
2022/08/14 11:37:57;;;;;;;17.63;15.77;;;;;;;23.44;100.00;98566.41;5109696;28;20277;-59